Pagrindinis puslapis
METAR-TAF:

METAR-TAF

Oro uostai :

Rabato oro uostas

Rabatas, Marokas

platuma: 34-03N, ilguma: 006-46W, Aukštis: 84 m

Dabartinis oras

Ataskaita buvo paskelbta 25 minutes, ne 23:00 UTC
Vėjas 8 kt iš Rytų
Temperatūra 16°C
Drėgmė 68%
Slėgis 1021 hPa
Matomumas: 8000 m

METAR: GMME 212300Z 08008KT 8000 NSC 16/10 Q1021 NOSIG

Laikas: 00:25 (23:25 UTC)

Prognozė

Ataskaita buvo paskelbta 6 valandos ir 25 minutes, ne 17:00 UTC
Prognozė galioja nuo 21 metu 18 UTC su 22 metu 24 UTC
Vėjas 14 kt iš Rytų/Šiaurės Rytų
Matomumas: 8000 m
Tapsmas
nuo 22 metu 11 UTC su 22 metu 13 UTC
Vėjas 7 kt iš Šiaurės/Šiaurės Vakarų

TAF: GMME 211700Z 2118/2224 07014KT 8000 NSC BECMG 2211/2213 33007KT

Orai ataskaitas ir orų prognozės (METAR, TAF).

turimą stotys yra geltonos ir raudonos taškus žemėlapyje.

Perkelti pele per norėdami pamatyti stoties vardą.

Tada spustelėkite, norėdami matyti oro stebėjimo ir prognozės.

Norėdami pakeisti žemėlapį: spustelėkite ant žalios mygtukų su juodo kryžiaus žemyn,; žalią mygtuką su brūkšneliu, jei norite nutolinti; arba žalių rodyklių gretimoms žemėlapius.


METAR-TAF: